createdAt,value
2022-11-20T00:01:32.500Z,49.20
2022-11-20T00:04:02.049Z,49.60
2022-11-20T00:06:29.840Z,50.27
2022-11-20T00:09:01.128Z,55.13
2022-11-20T00:11:30.768Z,49.10
2022-11-20T00:14:01.218Z,53.77
2022-11-20T00:16:30.922Z,49.60
2022-11-20T00:18:57.996Z,48.53
2022-11-20T00:21:27.703Z,50.20
2022-11-20T00:23:57.380Z,53.10
2022-11-20T00:26:27.242Z,47.73
2022-11-20T00:28:58.376Z,56.87
2022-11-20T00:31:26.646Z,50.70
2022-11-20T00:33:54.104Z,48.13
2022-11-20T00:36:25.902Z,44.63
2022-11-20T00:38:56.489Z,48.67
2022-11-20T00:41:25.377Z,53.13
2022-11-20T00:43:56.639Z,51.77
2022-11-20T00:46:26.779Z,51.50
2022-11-20T00:48:54.190Z,49.27
2022-11-20T00:51:24.321Z,46.60
2022-11-20T00:53:51.654Z,49.93
2022-11-20T00:56:20.749Z,51.90
2022-11-20T00:58:49.748Z,50.77
2022-11-20T01:01:22.293Z,50.87
2022-11-20T01:03:51.877Z,49.03
2022-11-20T01:06:24.384Z,51.70
2022-11-20T01:08:54.369Z,51.40
2022-11-20T01:11:28.324Z,54.20
2022-11-20T01:13:57.589Z,43.40
2022-11-20T01:16:37.770Z,45.53
2022-11-20T01:19:08.154Z,45.97
2022-11-20T01:21:42.227Z,52.10
2022-11-20T01:24:14.467Z,50.00
2022-11-20T01:26:44.036Z,46.77
2022-11-20T01:29:24.250Z,47.03
2022-11-20T01:31:52.609Z,48.60
2022-11-20T01:34:21.249Z,43.13
2022-11-20T01:36:49.854Z,43.50
2022-11-20T01:39:21.510Z,47.20
2022-11-20T01:42:10.287Z,43.73
2022-11-20T01:44:59.529Z,42.97
2022-11-20T01:47:46.455Z,46.57
2022-11-20T01:50:23.942Z,49.13
2022-11-20T01:53:02.091Z,41.97
2022-11-20T01:55:46.713Z,53.77
2022-11-20T01:58:14.923Z,47.67
2022-11-20T02:00:42.378Z,50.90
2022-11-20T02:03:15.729Z,41.73
2022-11-20T02:06:11.418Z,45.67
2022-11-20T02:08:39.845Z,47.93
2022-11-20T02:11:07.337Z,48.90
2022-11-20T02:13:44.674Z,45.63
2022-11-20T02:16:30.355Z,43.23
2022-11-20T02:19:01.401Z,45.47
2022-11-20T02:21:46.431Z,41.53
2022-11-20T02:24:19.575Z,49.13
2022-11-20T02:26:49.375Z,40.60
2022-11-20T02:29:25.749Z,43.50
2022-11-20T02:31:55.196Z,54.43
2022-11-20T02:34:22.398Z,40.90
2022-11-20T02:36:50.947Z,43.47
2022-11-20T02:39:18.310Z,45.67
2022-11-20T02:41:47.432Z,49.43
2022-11-20T02:44:14.634Z,47.70
2022-11-20T02:46:41.678Z,47.70
2022-11-20T02:49:08.810Z,47.50
2022-11-20T02:51:35.883Z,56.07
2022-11-20T02:54:02.967Z,47.37
2022-11-20T02:56:30.543Z,43.00
2022-11-20T02:58:57.642Z,46.67
2022-11-20T03:01:24.741Z,46.80
2022-11-20T03:03:53.323Z,45.33
2022-11-20T03:06:20.399Z,44.33
2022-11-20T03:08:47.400Z,50.47
2022-11-20T03:11:14.579Z,50.40
2022-11-20T03:13:41.513Z,56.17
2022-11-20T03:16:21.723Z,45.53
2022-11-20T03:18:49.139Z,46.63
2022-11-20T03:21:17.538Z,42.17
2022-11-20T03:23:44.762Z,47.70
2022-11-20T03:26:21.845Z,42.40
2022-11-20T03:28:55.068Z,43.43
2022-11-20T03:31:26.486Z,42.23
2022-11-20T03:33:54.033Z,44.00
2022-11-20T03:36:22.323Z,43.50
2022-11-20T03:38:50.073Z,42.00
2022-11-20T03:41:22.593Z,48.50
2022-11-20T03:43:52.565Z,47.07
2022-11-20T03:46:19.794Z,45.73
2022-11-20T03:48:51.315Z,46.67
2022-11-20T03:51:29.677Z,45.27
2022-11-20T03:54:00.118Z,47.20
2022-11-20T03:56:30.709Z,47.33
2022-11-20T03:58:58.178Z,52.40
2022-11-20T04:01:28.706Z,46.83
2022-11-20T04:03:57.818Z,43.03
2022-11-20T04:06:29.071Z,46.43
2022-11-20T04:09:00.620Z,41.70
2022-11-20T04:11:34.651Z,43.97
2022-11-20T04:14:05.518Z,46.50
2022-11-20T04:16:36.489Z,39.90
2022-11-20T04:19:07.360Z,47.33
2022-11-20T04:21:34.466Z,49.40
2022-11-20T04:24:02.067Z,48.23
2022-11-20T04:26:31.197Z,49.40
2022-11-20T04:28:59.124Z,45.73
2022-11-20T04:31:29.868Z,51.43
2022-11-20T04:34:00.566Z,50.87
2022-11-20T04:36:29.827Z,48.80
2022-11-20T04:38:59.885Z,53.33
2022-11-20T04:41:33.726Z,46.37
2022-11-20T04:44:04.458Z,52.73
2022-11-20T04:46:38.195Z,48.53
2022-11-20T04:49:06.365Z,47.60
2022-11-20T04:51:34.909Z,50.47
2022-11-20T04:54:02.125Z,52.50
2022-11-20T04:56:29.273Z,52.07
2022-11-20T04:58:56.465Z,54.93
2022-11-20T05:01:25.438Z,49.43
2022-11-20T05:03:53.232Z,56.87
2022-11-20T05:06:22.562Z,51.37
2022-11-20T05:08:52.146Z,45.93
2022-11-20T05:11:22.446Z,56.33
2022-11-20T05:13:51.197Z,45.67
2022-11-20T05:16:24.547Z,48.20
2022-11-20T05:18:56.719Z,49.10
2022-11-20T05:21:24.158Z,52.63
2022-11-20T05:23:51.206Z,50.87
2022-11-20T05:26:23.503Z,44.20
2022-11-20T05:28:51.290Z,50.90
2022-11-20T05:31:27.234Z,53.73
2022-11-20T05:33:56.111Z,50.33
2022-11-20T05:36:23.503Z,49.60
2022-11-20T05:38:51.350Z,50.00
2022-11-20T05:41:21.812Z,55.70
2022-11-20T05:43:50.756Z,50.03
2022-11-20T05:46:27.830Z,46.63
2022-11-20T05:48:56.938Z,49.70
2022-11-20T05:51:24.500Z,46.00
2022-11-20T05:53:51.533Z,51.17
2022-11-20T05:56:21.567Z,47.77
2022-11-20T05:58:49.558Z,46.47
2022-11-20T06:01:23.789Z,43.97
2022-11-20T06:03:51.955Z,47.63
2022-11-20T06:06:20.751Z,46.80
2022-11-20T06:08:48.730Z,42.93
2022-11-20T06:11:17.686Z,48.03
2022-11-20T06:13:45.035Z,46.73
2022-11-20T06:16:14.093Z,46.10
2022-11-20T06:18:41.395Z,48.93
2022-11-20T06:21:34.831Z,47.03
2022-11-20T06:24:01.993Z,44.70
2022-11-20T06:26:29.333Z,43.77
2022-11-20T06:28:59.030Z,55.83
2022-11-20T06:31:27.537Z,46.60
2022-11-20T06:33:54.862Z,48.10
2022-11-20T06:36:23.727Z,47.10
2022-11-20T06:38:51.925Z,40.50
2022-11-20T06:41:22.185Z,46.00
2022-11-20T06:43:50.074Z,46.37
2022-11-20T06:46:19.030Z,42.80
2022-11-20T06:48:47.217Z,43.27
2022-11-20T06:51:14.449Z,47.70
2022-11-20T06:53:41.689Z,44.27
2022-11-20T06:56:09.262Z,46.80
2022-11-20T06:58:38.459Z,48.40
2022-11-20T07:01:13.071Z,49.70
2022-11-20T07:03:40.745Z,42.77
2022-11-20T07:06:09.094Z,45.80
2022-11-20T07:08:36.648Z,47.43
2022-11-20T07:11:07.253Z,48.83
2022-11-20T07:13:34.754Z,41.83
2022-11-20T07:16:05.094Z,47.33
2022-11-20T07:18:32.115Z,48.90
2022-11-20T07:21:09.397Z,45.43
2022-11-20T07:23:37.272Z,44.57
2022-11-20T07:26:12.067Z,38.37
2022-11-20T07:28:39.506Z,38.57
2022-11-20T07:31:08.417Z,42.90
2022-11-20T07:33:35.449Z,44.17
2022-11-20T07:36:02.743Z,41.73
2022-11-20T07:38:30.171Z,44.93
2022-11-20T07:40:58.806Z,43.37
2022-11-20T07:43:26.475Z,50.73
2022-11-20T07:45:55.793Z,41.67
2022-11-20T07:48:22.983Z,45.17
2022-11-20T07:50:50.073Z,46.40
2022-11-20T07:53:21.813Z,42.07
2022-11-20T07:55:49.354Z,48.70
2022-11-20T07:58:16.450Z,48.57
2022-11-20T08:00:43.738Z,44.00
2022-11-20T08:03:10.891Z,50.47
2022-11-20T08:05:38.405Z,41.13
2022-11-20T08:08:05.812Z,49.60
2022-11-20T08:10:32.994Z,42.57
2022-11-20T08:13:18.873Z,44.43
2022-11-20T08:15:54.136Z,47.67
2022-11-20T08:18:31.217Z,45.53
2022-11-20T08:21:02.499Z,45.40
2022-11-20T08:23:29.589Z,45.33
2022-11-20T08:25:56.635Z,50.90
2022-11-20T08:28:23.774Z,46.77
2022-11-20T08:30:51.744Z,48.03
2022-11-20T08:33:19.917Z,51.60
2022-11-20T08:35:47.178Z,51.33
2022-11-20T08:38:14.473Z,44.17
2022-11-20T08:40:41.608Z,48.43
2022-11-20T08:43:08.710Z,48.30
2022-11-20T08:45:35.841Z,54.00
2022-11-20T08:48:04.406Z,47.93
2022-11-20T08:50:33.340Z,45.27
2022-11-20T08:53:06.465Z,45.93
2022-11-20T08:55:36.319Z,51.03
2022-11-20T08:58:07.840Z,50.73
2022-11-20T09:00:35.413Z,55.93
2022-11-20T09:03:02.943Z,46.77
2022-11-20T09:05:30.250Z,49.23
2022-11-20T09:08:00.791Z,41.77
2022-11-20T09:10:28.300Z,51.63
2022-11-20T09:12:58.700Z,51.73
2022-11-20T09:15:26.886Z,48.83
2022-11-20T09:17:58.093Z,51.67
2022-11-20T09:20:25.999Z,50.40
2022-11-20T09:22:53.034Z,50.53
2022-11-20T09:25:19.937Z,50.33
2022-11-20T09:27:47.385Z,44.60
2022-11-20T09:30:16.052Z,55.33
2022-11-20T09:32:43.947Z,45.27
2022-11-20T09:35:11.671Z,47.03
2022-11-20T09:37:39.248Z,46.87
2022-11-20T09:40:07.458Z,42.87
2022-11-20T09:42:56.451Z,43.80
2022-11-20T09:45:50.755Z,51.10
2022-11-20T09:48:32.551Z,47.93
2022-11-20T09:51:29.381Z,49.63
2022-11-20T09:54:19.061Z,47.60
2022-11-20T09:57:03.185Z,56.40
2022-11-20T09:59:53.561Z,50.70
2022-11-20T10:02:38.476Z,50.67
2022-11-20T10:05:44.686Z,53.93
2022-11-20T10:08:22.994Z,46.57
2022-11-20T10:11:26.002Z,50.47
2022-11-20T10:14:40.748Z,51.93
2022-11-20T10:17:23.738Z,52.20
2022-11-20T10:20:25.092Z,51.40
2022-11-20T10:23:26.008Z,59.83
2022-11-20T10:26:03.174Z,56.57
2022-11-20T10:29:12.266Z,54.73
2022-11-20T10:31:43.366Z,47.13
2022-11-20T10:34:52.925Z,46.83
2022-11-20T10:37:28.302Z,46.80
2022-11-20T10:40:04.192Z,50.70
2022-11-20T10:42:48.005Z,54.60
2022-11-20T10:45:26.923Z,50.90
2022-11-20T10:48:23.025Z,50.50
2022-11-20T10:51:16.594Z,49.87
2022-11-20T10:54:19.003Z,50.00
2022-11-20T10:56:53.811Z,45.87
2022-11-20T10:59:54.206Z,46.70
2022-11-20T11:02:24.669Z,43.87
2022-11-20T11:04:54.612Z,42.63
2022-11-20T11:07:40.590Z,46.13
2022-11-20T11:10:45.946Z,43.97
2022-11-20T11:13:30.897Z,44.53
2022-11-20T11:15:58.890Z,42.60
2022-11-20T11:18:32.974Z,42.77
2022-11-20T11:21:04.292Z,41.37
2022-11-20T11:23:41.551Z,42.73
2022-11-20T11:26:24.583Z,43.77
2022-11-20T11:29:18.893Z,42.83
2022-11-20T11:31:45.890Z,40.87
2022-11-20T11:34:15.517Z,41.77
2022-11-20T11:36:43.183Z,43.93
2022-11-20T11:39:17.274Z,39.57
2022-11-20T11:41:44.983Z,46.40
2022-11-20T11:44:44.661Z,47.20
2022-11-20T11:47:19.328Z,42.57
2022-11-20T11:49:46.322Z,41.43
2022-11-20T11:52:24.001Z,42.00
2022-11-20T11:55:00.777Z,39.40
2022-11-20T11:57:50.964Z,43.97
2022-11-20T12:00:21.460Z,42.23
2022-11-20T12:03:06.163Z,38.40
2022-11-20T12:05:45.644Z,41.77
2022-11-20T12:08:24.961Z,40.30
2022-11-20T12:11:17.359Z,39.67
2022-11-20T12:14:10.931Z,40.07
2022-11-20T12:16:40.045Z,36.53
2022-11-20T12:19:15.115Z,40.90
2022-11-20T12:22:24.049Z,41.47
2022-11-20T12:25:08.870Z,43.13
2022-11-20T12:28:00.646Z,44.90
2022-11-20T12:30:27.742Z,40.43
2022-11-20T12:33:20.795Z,47.17
2022-11-20T12:36:09.421Z,39.67
2022-11-20T12:39:03.898Z,43.53
2022-11-20T12:42:42.893Z,44.20
2022-11-20T12:45:21.626Z,46.63
2022-11-20T12:48:16.358Z,41.77
2022-11-20T12:51:32.114Z,45.57
2022-11-20T12:54:26.392Z,33.03
2022-11-20T12:57:15.342Z,36.87
2022-11-20T13:00:23.907Z,39.47
2022-11-20T13:03:15.647Z,40.67
2022-11-20T13:06:00.190Z,35.93
2022-11-20T13:08:42.384Z,41.03
2022-11-20T13:11:40.783Z,38.23
2022-11-20T13:14:32.626Z,36.10
2022-11-20T13:17:37.648Z,37.83
2022-11-20T13:20:13.251Z,38.73
2022-11-20T13:22:58.780Z,34.00
2022-11-20T13:25:30.547Z,42.77
2022-11-20T13:28:01.442Z,36.80
2022-11-20T13:30:30.785Z,39.37
2022-11-20T13:33:05.842Z,37.37
2022-11-20T13:35:43.650Z,38.63
2022-11-20T13:38:14.687Z,35.57
2022-11-20T13:41:00.169Z,40.33
2022-11-20T13:43:38.648Z,41.33
2022-11-20T13:46:10.729Z,37.17
2022-11-20T13:48:47.106Z,37.93
2022-11-20T13:51:51.730Z,37.87
2022-11-20T13:54:45.711Z,38.97
2022-11-20T13:57:55.851Z,40.60
2022-11-20T14:00:26.020Z,42.30
2022-11-20T14:03:08.018Z,43.90
2022-11-20T14:05:40.768Z,39.27
2022-11-20T14:08:14.983Z,39.43
2022-11-20T14:10:41.936Z,44.00
2022-11-20T14:13:19.834Z,42.63
2022-11-20T14:15:46.814Z,45.37
2022-11-20T14:18:25.645Z,45.80
2022-11-20T14:20:52.675Z,46.90
2022-11-20T14:23:30.186Z,49.00
2022-11-20T14:25:57.829Z,49.20
2022-11-20T14:28:31.523Z,51.53
2022-11-20T14:30:58.933Z,48.37
2022-11-20T14:33:27.915Z,49.53
2022-11-20T14:35:59.401Z,43.60
2022-11-20T14:38:29.728Z,49.67
2022-11-20T14:41:19.908Z,46.10
2022-11-20T14:43:52.182Z,46.27
2022-11-20T14:46:19.507Z,47.80
2022-11-20T14:49:05.811Z,45.50
2022-11-20T14:51:43.505Z,40.30
2022-11-20T14:54:16.539Z,52.50
2022-11-20T14:56:55.097Z,56.23
2022-11-20T14:59:43.714Z,46.57
2022-11-20T15:02:13.862Z,49.50
2022-11-20T15:04:58.241Z,48.53
2022-11-20T15:07:38.016Z,49.33
2022-11-20T15:10:12.916Z,51.43
2022-11-20T15:12:53.313Z,43.47
2022-11-20T15:15:36.420Z,45.10
2022-11-20T15:18:04.727Z,49.60
2022-11-20T15:20:34.126Z,47.27
2022-11-20T15:23:01.210Z,48.60
2022-11-20T15:25:29.249Z,47.77
2022-11-20T15:27:58.045Z,45.20
2022-11-20T15:30:25.477Z,42.17
2022-11-20T15:32:52.565Z,48.17
2022-11-20T15:35:19.618Z,48.20
2022-11-20T15:37:46.635Z,45.63
2022-11-20T15:40:13.982Z,42.83
2022-11-20T15:43:00.983Z,41.73
2022-11-20T15:45:46.368Z,46.50
2022-11-20T15:48:20.716Z,46.43
2022-11-20T15:51:12.111Z,51.27
2022-11-20T15:53:41.322Z,53.17
2022-11-20T15:56:13.858Z,49.90
2022-11-20T15:58:41.857Z,52.77
2022-11-20T16:01:21.778Z,54.10
2022-11-20T16:03:49.512Z,49.30
2022-11-20T16:06:17.321Z,43.97
2022-11-20T16:08:44.312Z,44.07
2022-11-20T16:11:16.030Z,47.93
2022-11-20T16:14:01.745Z,49.73
2022-11-20T16:16:35.800Z,48.80
2022-11-20T16:19:03.291Z,46.27
2022-11-20T16:21:33.635Z,46.83
2022-11-20T16:24:03.259Z,46.43
2022-11-20T16:26:30.290Z,52.33
2022-11-20T16:28:59.384Z,41.57
2022-11-20T16:31:26.334Z,44.47
2022-11-20T16:33:59.648Z,47.07
2022-11-20T16:36:28.589Z,44.03
2022-11-20T16:38:58.379Z,50.33
2022-11-20T16:41:27.503Z,40.73
2022-11-20T16:44:00.272Z,45.37
2022-11-20T16:46:32.352Z,44.93
2022-11-20T16:49:13.968Z,47.53
2022-11-20T16:51:41.213Z,45.67
2022-11-20T16:54:10.223Z,45.23
2022-11-20T16:56:37.624Z,49.43
2022-11-20T16:59:05.411Z,44.70
2022-11-20T17:01:32.902Z,42.60
2022-11-20T17:04:06.546Z,49.77
2022-11-20T17:06:36.840Z,43.87
2022-11-20T17:09:04.521Z,47.77
2022-11-20T17:11:31.594Z,52.40
2022-11-20T17:14:03.782Z,53.37
2022-11-20T17:16:31.639Z,57.47
2022-11-20T17:19:03.310Z,50.30
2022-11-20T17:21:39.346Z,50.67
2022-11-20T17:24:12.753Z,50.07
2022-11-20T17:26:42.241Z,50.00
2022-11-20T17:29:16.687Z,47.50
2022-11-20T17:31:45.333Z,45.67
2022-11-20T17:34:15.155Z,50.10
2022-11-20T17:36:45.686Z,46.93
2022-11-20T17:39:14.884Z,45.20
2022-11-20T17:41:42.013Z,43.03
2022-11-20T17:44:13.123Z,44.23
2022-11-20T17:46:40.600Z,44.53
2022-11-20T17:49:07.651Z,47.13
2022-11-20T17:51:35.446Z,44.07
2022-11-20T17:54:07.556Z,39.00
2022-11-20T17:56:54.223Z,42.80
2022-11-20T17:59:22.164Z,44.33
2022-11-20T18:01:49.486Z,46.23
2022-11-20T18:04:16.939Z,42.90
2022-11-20T18:06:44.196Z,44.77
2022-11-20T18:09:12.232Z,47.07
2022-11-20T18:11:42.900Z,43.20
2022-11-20T18:14:34.605Z,47.33
2022-11-20T18:17:12.154Z,40.37
2022-11-20T18:20:06.777Z,45.10
2022-11-20T18:22:32.947Z,38.83
2022-11-20T18:24:59.893Z,42.60
2022-11-20T18:27:26.814Z,44.50
2022-11-20T18:29:53.983Z,42.20
2022-11-20T18:32:22.820Z,47.33
2022-11-20T18:34:51.302Z,43.07
2022-11-20T18:37:18.339Z,48.60
2022-11-20T18:39:45.629Z,47.10
2022-11-20T18:42:33.310Z,44.93
2022-11-20T18:45:01.490Z,41.30
2022-11-20T18:47:32.132Z,52.13
2022-11-20T18:50:01.190Z,46.93
2022-11-20T18:52:35.062Z,48.53
2022-11-20T18:55:03.922Z,49.10
2022-11-20T18:57:31.818Z,47.43
2022-11-20T19:00:08.445Z,49.17
2022-11-20T19:02:41.045Z,45.17
2022-11-20T19:05:10.676Z,47.37
2022-11-20T19:07:37.697Z,48.80
2022-11-20T19:10:06.137Z,46.73
2022-11-20T19:12:33.137Z,43.87
2022-11-20T19:15:00.288Z,48.90
2022-11-20T19:17:27.226Z,42.10
2022-11-20T19:19:55.032Z,50.90
2022-11-20T19:22:22.340Z,52.13
2022-11-20T19:24:49.677Z,49.00
2022-11-20T19:27:16.776Z,46.80
2022-11-20T19:29:43.713Z,53.47
2022-11-20T19:32:10.684Z,52.70
2022-11-20T19:34:37.697Z,51.07
2022-11-20T19:37:05.242Z,55.73
2022-11-20T19:39:32.170Z,46.00
2022-11-20T19:41:59.178Z,50.10
2022-11-20T19:44:26.169Z,50.67
2022-11-20T19:46:53.198Z,53.13
2022-11-20T19:49:20.163Z,51.67
2022-11-20T19:51:49.408Z,53.37
2022-11-20T19:54:17.656Z,52.57
2022-11-20T19:56:45.571Z,50.77
2022-11-20T19:59:13.085Z,50.97
2022-11-20T20:01:40.167Z,56.53
2022-11-20T20:04:07.496Z,60.53
2022-11-20T20:06:38.800Z,56.20
2022-11-20T20:09:10.348Z,59.17
2022-11-20T20:11:38.195Z,54.47
2022-11-20T20:14:14.533Z,56.70
2022-11-20T20:16:42.631Z,59.93
2022-11-20T20:19:15.108Z,53.63
2022-11-20T20:21:42.984Z,60.57
2022-11-20T20:24:11.850Z,53.53
2022-11-20T20:26:38.930Z,51.77
2022-11-20T20:29:05.913Z,56.80
2022-11-20T20:31:34.078Z,56.73
2022-11-20T20:34:03.334Z,53.10
2022-11-20T20:36:30.435Z,54.77
2022-11-20T20:39:05.011Z,57.30
2022-11-20T20:41:32.241Z,54.60
2022-11-20T20:44:17.839Z,60.23
2022-11-20T20:46:44.834Z,57.10
2022-11-20T20:49:11.856Z,53.57
2022-11-20T20:51:38.796Z,54.00
2022-11-20T20:54:05.970Z,57.00
2022-11-20T20:56:32.993Z,51.40
2022-11-20T20:59:00.021Z,58.03
2022-11-20T21:01:28.975Z,58.10
2022-11-20T21:03:57.607Z,59.23
2022-11-20T21:06:25.849Z,54.60
2022-11-20T21:08:53.133Z,59.37
2022-11-20T21:11:20.949Z,66.43
2022-11-20T21:13:49.174Z,57.47
2022-11-20T21:16:19.017Z,62.60
2022-11-20T21:18:46.879Z,65.17
2022-11-20T21:21:34.645Z,64.33
2022-11-20T21:24:02.353Z,67.27
2022-11-20T21:26:29.568Z,68.30
2022-11-20T21:28:57.868Z,65.10
2022-11-20T21:31:27.024Z,66.53
2022-11-20T21:33:56.553Z,61.53
2022-11-20T21:36:29.019Z,66.23
2022-11-20T21:38:57.722Z,70.17
2022-11-20T21:41:26.915Z,70.07
2022-11-20T21:44:29.169Z,65.97
2022-11-20T21:46:45.106Z,70.73
2022-11-20T21:49:12.765Z,69.40
2022-11-20T21:51:40.277Z,66.33
2022-11-20T21:54:07.279Z,67.87
2022-11-20T21:56:34.461Z,66.60
2022-11-20T21:59:01.514Z,70.23
2022-11-20T22:01:30.757Z,67.23
2022-11-20T22:04:01.491Z,66.73
2022-11-20T22:06:34.435Z,73.50
2022-11-20T22:09:03.064Z,64.77
2022-11-20T22:11:30.819Z,71.70
2022-11-20T22:14:16.859Z,74.83
2022-11-20T22:16:43.947Z,73.77
2022-11-20T22:19:11.146Z,70.70
2022-11-20T22:21:40.666Z,73.17
2022-11-20T22:24:12.264Z,70.33
2022-11-20T22:26:40.701Z,73.10
2022-11-20T22:29:12.433Z,66.47
2022-11-20T22:31:39.361Z,76.73
2022-11-20T22:34:06.486Z,75.43
2022-11-20T22:36:37.929Z,72.33
2022-11-20T22:39:05.836Z,70.97
2022-11-20T22:41:34.625Z,77.93
2022-11-20T22:44:05.535Z,77.83
2022-11-20T22:46:35.981Z,85.53
2022-11-20T22:49:08.487Z,74.37
2022-11-20T22:51:38.767Z,82.73
2022-11-20T22:54:06.237Z,77.30
2022-11-20T22:56:33.945Z,78.40
2022-11-20T22:59:01.161Z,75.17
2022-11-20T23:01:39.059Z,89.03
2022-11-20T23:04:10.762Z,74.60
2022-11-20T23:06:38.290Z,80.57
2022-11-20T23:09:07.196Z,81.93
2022-11-20T23:11:35.412Z,78.33
2022-11-20T23:14:11.992Z,76.50
2022-11-20T23:16:39.007Z,84.57
2022-11-20T23:19:09.083Z,86.00
2022-11-20T23:21:38.145Z,77.10
2022-11-20T23:24:06.181Z,80.57
2022-11-20T23:26:37.118Z,77.00
2022-11-20T23:29:05.448Z,78.93
2022-11-20T23:31:34.941Z,77.13
2022-11-20T23:34:02.561Z,80.33
2022-11-20T23:36:29.503Z,88.80
2022-11-20T23:38:56.975Z,86.30
2022-11-20T23:41:23.956Z,83.63
2022-11-20T23:43:50.909Z,97.87
2022-11-20T23:46:17.844Z,85.47
2022-11-20T23:48:45.608Z,87.00
2022-11-20T23:51:12.772Z,89.57
2022-11-20T23:53:39.959Z,91.83
2022-11-20T23:56:07.119Z,81.37
2022-11-20T23:58:37.374Z,82.57
